sensor_id;sensor_type;location;lat;lon;timestamp;pressure;altitude;pressure_sealevel;temperature;humidity
51195;BME280;37259;49.972;19.850;2022-07-17T00:00:17;99200;;;10.9;100
51195;BME280;37259;49.972;19.850;2022-07-17T00:01:16;99200;;;10.9;100
51195;BME280;37259;49.972;19.850;2022-07-17T00:02:16;99200;;;10.9;100
51195;BME280;37259;49.972;19.850;2022-07-17T00:03:16;99210;;;10.9;100
51195;BME280;37259;49.972;19.850;2022-07-17T00:04:16;99210;;;10.9;100
51195;BME280;37259;49.972;19.850;2022-07-17T00:05:16;99210;;;10.9;100
51195;BME280;37259;49.972;19.850;2022-07-17T00:06:16;99210;;;10.9;100
51195;BME280;37259;49.972;19.850;2022-07-17T00:07:16;99210;;;10.8;100
51195;BME280;37259;49.972;19.850;2022-07-17T00:08:16;99210;;;10.8;100
51195;BME280;37259;49.972;19.850;2022-07-17T00:09:16;99220;;;10.8;100
51195;BME280;37259;49.972;19.850;2022-07-17T00:10:16;99220;;;10.8;100
51195;BME280;37259;49.972;19.850;2022-07-17T00:11:16;99220;;;10.8;100
51195;BME280;37259;49.972;19.850;2022-07-17T00:12:16;99220;;;10.8;100
51195;BME280;37259;49.972;19.850;2022-07-17T00:13:16;99210;;;10.8;100
51195;BME280;37259;49.972;19.850;2022-07-17T00:14:16;99220;;;10.7;100
51195;BME280;37259;49.972;19.850;2022-07-17T00:15:16;99220;;;10.7;100
51195;BME280;37259;49.972;19.850;2022-07-17T00:16:16;99220;;;10.7;100
51195;BME280;37259;49.972;19.850;2022-07-17T00:17:16;99220;;;10.7;100
51195;BME280;37259;49.972;19.850;2022-07-17T00:18:16;99230;;;10.7;100
51195;BME280;37259;49.972;19.850;2022-07-17T00:19:16;99230;;;10.7;100
51195;BME280;37259;49.972;19.850;2022-07-17T00:20:16;99230;;;10.6;100
51195;BME280;37259;49.972;19.850;2022-07-17T00:21:16;99220;;;10.6;100
51195;BME280;37259;49.972;19.850;2022-07-17T00:22:16;99220;;;10.6;100
51195;BME280;37259;49.972;19.850;2022-07-17T00:23:16;99230;;;10.6;100
51195;BME280;37259;49.972;19.850;2022-07-17T00:24:16;99220;;;10.5;100
51195;BME280;37259;49.972;19.850;2022-07-17T00:25:16;99220;;;10.5;100
51195;BME280;37259;49.972;19.850;2022-07-17T00:26:16;99220;;;10.5;100
51195;BME280;37259;49.972;19.850;2022-07-17T00:27:16;99230;;;10.5;100
51195;BME280;37259;49.972;19.850;2022-07-17T00:28:16;99220;;;10.5;100
51195;BME280;37259;49.972;19.850;2022-07-17T00:29:16;99220;;;10.5;100
51195;BME280;37259;49.972;19.850;2022-07-17T00:30:17;99220;;;10.4;100
51195;BME280;37259;49.972;19.850;2022-07-17T00:31:16;99220;;;10.4;100
51195;BME280;37259;49.972;19.850;2022-07-17T00:32:16;99220;;;10.4;100
51195;BME280;37259;49.972;19.850;2022-07-17T00:33:16;99220;;;10.4;100
51195;BME280;37259;49.972;19.850;2022-07-17T00:34:16;99230;;;10.4;100
51195;BME280;37259;49.972;19.850;2022-07-17T00:35:16;99220;;;10.4;100
51195;BME280;37259;49.972;19.850;2022-07-17T00:36:16;99220;;;10.4;100
51195;BME280;37259;49.972;19.850;2022-07-17T00:37:16;99230;;;10.4;100
51195;BME280;37259;49.972;19.850;2022-07-17T00:38:16;99230;;;10.4;100
51195;BME280;37259;49.972;19.850;2022-07-17T00:39:16;99230;;;10.4;100
51195;BME280;37259;49.972;19.850;2022-07-17T00:40:17;99230;;;10.3;100
51195;BME280;37259;49.972;19.850;2022-07-17T00:41:16;99230;;;10.3;100
51195;BME280;37259;49.972;19.850;2022-07-17T00:42:17;99230;;;10.3;100
51195;BME280;37259;49.972;19.850;2022-07-17T00:43:16;99230;;;10.3;100
51195;BME280;37259;49.972;19.850;2022-07-17T00:44:16;99230;;;10.3;100
51195;BME280;37259;49.972;19.850;2022-07-17T00:45:16;99230;;;10.3;100
51195;BME280;37259;49.972;19.850;2022-07-17T00:46:16;99230;;;10.3;100
51195;BME280;37259;49.972;19.850;2022-07-17T00:47:17;99230;;;10.3;100
51195;BME280;37259;49.972;19.850;2022-07-17T00:48:16;99230;;;10.3;100
51195;BME280;37259;49.972;19.850;2022-07-17T00:49:16;99230;;;10.3;100
51195;BME280;37259;49.972;19.850;2022-07-17T00:50:16;99230;;;10.3;100
51195;BME280;37259;49.972;19.850;2022-07-17T00:51:16;99230;;;10.3;100
51195;BME280;37259;49.972;19.850;2022-07-17T00:52:16;99230;;;10.3;100
51195;BME280;37259;49.972;19.850;2022-07-17T00:53:16;99230;;;10.3;100
51195;BME280;37259;49.972;19.850;2022-07-17T00:54:16;99230;;;10.3;100
51195;BME280;37259;49.972;19.850;2022-07-17T00:55:17;99230;;;10.3;100
51195;BME280;37259;49.972;19.850;2022-07-17T00:56:17;99240;;;10.3;100
51195;BME280;37259;49.972;19.850;2022-07-17T00:57:16;99240;;;10.3;100
51195;BME280;37259;49.972;19.850;2022-07-17T00:58:17;99240;;;10.3;100
51195;BME280;37259;49.972;19.850;2022-07-17T00:59:16;99240;;;10.3;100
51195;BME280;37259;49.972;19.850;2022-07-17T01:00:17;99240;;;10.3;100
51195;BME280;37259;49.972;19.850;2022-07-17T01:01:16;99240;;;10.3;100
51195;BME280;37259;49.972;19.850;2022-07-17T01:02:16;99240;;;10.3;100
51195;BME280;37259;49.972;19.850;2022-07-17T01:03:17;99240;;;10.3;100
51195;BME280;37259;49.972;19.850;2022-07-17T01:04:16;99240;;;10.3;100
51195;BME280;37259;49.972;19.850;2022-07-17T01:05:16;99240;;;10.3;100
51195;BME280;37259;49.972;19.850;2022-07-17T01:06:16;99240;;;10.3;100
51195;BME280;37259;49.972;19.850;2022-07-17T01:07:16;99240;;;10.3;100
51195;BME280;37259;49.972;19.850;2022-07-17T01:08:16;99240;;;10.3;100
51195;BME280;37259;49.972;19.850;2022-07-17T01:09:16;99240;;;10.2;100
51195;BME280;37259;49.972;19.850;2022-07-17T01:10:17;99240;;;10.2;100
51195;BME280;37259;49.972;19.850;2022-07-17T01:11:16;99240;;;10.2;100
51195;BME280;37259;49.972;19.850;2022-07-17T01:12:16;99240;;;10.2;100
51195;BME280;37259;49.972;19.850;2022-07-17T01:13:16;99240;;;10.2;100
51195;BME280;37259;49.972;19.850;2022-07-17T01:14:16;99240;;;10.2;100
51195;BME280;37259;49.972;19.850;2022-07-17T01:15:16;99240;;;10.2;100
51195;BME280;37259;49.972;19.850;2022-07-17T01:16:16;99240;;;10.1;100
51195;BME280;37259;49.972;19.850;2022-07-17T01:17:16;99240;;;10.1;100
51195;BME280;37259;49.972;19.850;2022-07-17T01:18:16;99240;;;10.1;100
51195;BME280;37259;49.972;19.850;2022-07-17T01:19:16;99240;;;10.1;100
51195;BME280;37259;49.972;19.850;2022-07-17T01:20:16;99240;;;10.1;100
51195;BME280;37259;49.972;19.850;2022-07-17T01:21:16;99240;;;10.1;100
51195;BME280;37259;49.972;19.850;2022-07-17T01:22:16;99230;;;10.1;100
51195;BME280;37259;49.972;19.850;2022-07-17T01:23:17;99230;;;10.1;100
51195;BME280;37259;49.972;19.850;2022-07-17T01:24:16;99240;;;10.1;100
51195;BME280;37259;49.972;19.850;2022-07-17T01:25:20;99240;;;10.1;100
51195;BME280;37259;49.972;19.850;2022-07-17T01:26:16;99230;;;10.1;100
51195;BME280;37259;49.972;19.850;2022-07-17T01:27:16;99230;;;10.1;100
51195;BME280;37259;49.972;19.850;2022-07-17T01:28:16;99240;;;10;100
51195;BME280;37259;49.972;19.850;2022-07-17T01:29:16;99240;;;10;100
51195;BME280;37259;49.972;19.850;2022-07-17T01:30:16;99240;;;10;100
51195;BME280;37259;49.972;19.850;2022-07-17T01:31:16;99240;;;10;100
51195;BME280;37259;49.972;19.850;2022-07-17T01:32:16;99240;;;10;100
51195;BME280;37259;49.972;19.850;2022-07-17T01:33:17;99240;;;10;100
51195;BME280;37259;49.972;19.850;2022-07-17T01:34:16;99240;;;10;100
51195;BME280;37259;49.972;19.850;2022-07-17T01:35:16;99240;;;10;100
51195;BME280;37259;49.972;19.850;2022-07-17T01:36:21;99240;;;10;100
51195;BME280;37259;49.972;19.850;2022-07-17T01:37:16;99240;;;10;100
51195;BME280;37259;49.972;19.850;2022-07-17T01:38:16;99240;;;10;100
51195;BME280;37259;49.972;19.850;2022-07-17T01:39:16;99240;;;10;100
51195;BME280;37259;49.972;19.850;2022-07-17T01:40:16;99240;;;10;100
51195;BME280;37259;49.972;19.850;2022-07-17T01:41:16;99240;;;10;100
51195;BME280;37259;49.972;19.850;2022-07-17T01:42:16;99240;;;10;100
51195;BME280;37259;49.972;19.850;2022-07-17T01:43:16;99240;;;10;100
51195;BME280;37259;49.972;19.850;2022-07-17T01:44:16;99240;;;10;100
51195;BME280;37259;49.972;19.850;2022-07-17T01:45:17;99240;;;10;100
51195;BME280;37259;49.972;19.850;2022-07-17T01:46:16;99250;;;9.9;100
51195;BME280;37259;49.972;19.850;2022-07-17T01:47:17;99250;;;9.9;100
51195;BME280;37259;49.972;19.850;2022-07-17T01:48:24;99240;;;9.9;100
51195;BME280;37259;49.972;19.850;2022-07-17T01:49:17;99240;;;9.9;100
51195;BME280;37259;49.972;19.850;2022-07-17T01:50:16;99240;;;9.9;100
51195;BME280;37259;49.972;19.850;2022-07-17T01:51:16;99240;;;9.9;100
51195;BME280;37259;49.972;19.850;2022-07-17T01:52:16;99240;;;9.9;100
51195;BME280;37259;49.972;19.850;2022-07-17T01:53:16;99240;;;9.9;100
51195;BME280;37259;49.972;19.850;2022-07-17T01:54:16;99240;;;9.9;100
51195;BME280;37259;49.972;19.850;2022-07-17T01:55:16;99240;;;9.9;100
51195;BME280;37259;49.972;19.850;2022-07-17T01:56:16;99240;;;9.9;100
51195;BME280;37259;49.972;19.850;2022-07-17T01:57:16;99240;;;9.9;100
51195;BME280;37259;49.972;19.850;2022-07-17T01:58:16;99240;;;9.9;100
51195;BME280;37259;49.972;19.850;2022-07-17T01:59:16;99240;;;9.9;100
51195;BME280;37259;49.972;19.850;2022-07-17T02:00:17;99240;;;9.9;100
51195;BME280;37259;49.972;19.850;2022-07-17T02:01:16;99250;;;9.9;100
51195;BME280;37259;49.972;19.850;2022-07-17T02:02:16;99250;;;9.9;100
51195;BME280;37259;49.972;19.850;2022-07-17T02:03:16;99250;;;9.9;100
51195;BME280;37259;49.972;19.850;2022-07-17T02:04:16;99250;;;9.9;100
51195;BME280;37259;49.972;19.850;2022-07-17T02:05:16;99250;;;9.9;100
51195;BME280;37259;49.972;19.850;2022-07-17T02:06:16;99250;;;9.9;100
51195;BME280;37259;49.972;19.850;2022-07-17T02:07:16;99250;;;9.9;100
51195;BME280;37259;49.972;19.850;2022-07-17T02:08:16;99250;;;9.9;100
51195;BME280;37259;49.972;19.850;2022-07-17T02:09:16;99250;;;9.9;100
51195;BME280;37259;49.972;19.850;2022-07-17T02:10:16;99250;;;9.9;100
51195;BME280;37259;49.972;19.850;2022-07-17T02:11:16;99250;;;9.9;100
51195;BME280;37259;49.972;19.850;2022-07-17T02:12:16;99250;;;9.9;100
51195;BME280;37259;49.972;19.850;2022-07-17T02:13:16;99250;;;9.9;100
51195;BME280;37259;49.972;19.850;2022-07-17T02:14:16;99250;;;9.9;100
51195;BME280;37259;49.972;19.850;2022-07-17T02:15:16;99250;;;9.9;100
51195;BME280;37259;49.972;19.850;2022-07-17T02:16:16;99250;;;9.9;100
51195;BME280;37259;49.972;19.850;2022-07-17T02:17:16;99250;;;9.9;100
51195;BME280;37259;49.972;19.850;2022-07-17T02:18:16;99250;;;9.9;100
51195;BME280;37259;49.972;19.850;2022-07-17T02:19:16;99250;;;9.9;100
51195;BME280;37259;49.972;19.850;2022-07-17T02:20:16;99250;;;9.9;100
51195;BME280;37259;49.972;19.850;2022-07-17T02:21:16;99250;;;9.9;100
51195;BME280;37259;49.972;19.850;2022-07-17T02:22:16;99250;;;9.9;100
51195;BME280;37259;49.972;19.850;2022-07-17T02:23:16;99250;;;9.9;100
51195;BME280;37259;49.972;19.850;2022-07-17T02:24:16;99250;;;9.9;100
51195;BME280;37259;49.972;19.850;2022-07-17T02:25:16;99250;;;9.9;100
51195;BME280;37259;49.972;19.850;2022-07-17T02:26:16;99250;;;9.9;100
51195;BME280;37259;49.972;19.850;2022-07-17T02:27:16;99250;;;9.9;100
51195;BME280;37259;49.972;19.850;2022-07-17T02:28:16;99250;;;9.8;100
51195;BME280;37259;49.972;19.850;2022-07-17T02:29:16;99250;;;9.8;100
51195;BME280;37259;49.972;19.850;2022-07-17T02:30:17;99240;;;9.9;100
51195;BME280;37259;49.972;19.850;2022-07-17T02:31:16;99240;;;9.9;100
51195;BME280;37259;49.972;19.850;2022-07-17T02:32:16;99240;;;9.9;100
51195;BME280;37259;49.972;19.850;2022-07-17T02:33:16;99240;;;9.9;100
51195;BME280;37259;49.972;19.850;2022-07-17T02:34:16;99250;;;9.8;100
51195;BME280;37259;49.972;19.850;2022-07-17T02:35:16;99250;;;9.8;100
51195;BME280;37259;49.972;19.850;2022-07-17T02:36:16;99240;;;9.9;100
51195;BME280;37259;49.972;19.850;2022-07-17T02:37:16;99240;;;9.9;100
51195;BME280;37259;49.972;19.850;2022-07-17T02:38:16;99240;;;9.9;100
51195;BME280;37259;49.972;19.850;2022-07-17T02:39:16;99240;;;9.8;100
51195;BME280;37259;49.972;19.850;2022-07-17T02:40:16;99250;;;9.9;100
51195;BME280;37259;49.972;19.850;2022-07-17T02:41:16;99250;;;9.9;100
51195;BME280;37259;49.972;19.850;2022-07-17T02:42:16;99250;;;9.9;100
51195;BME280;37259;49.972;19.850;2022-07-17T02:43:16;99250;;;9.9;100
51195;BME280;37259;49.972;19.850;2022-07-17T02:44:16;99240;;;9.9;100
51195;BME280;37259;49.972;19.850;2022-07-17T02:45:16;99240;;;9.9;100
51195;BME280;37259;49.972;19.850;2022-07-17T02:46:16;99240;;;9.8;100
51195;BME280;37259;49.972;19.850;2022-07-17T02:47:20;99240;;;9.8;100
51195;BME280;37259;49.972;19.850;2022-07-17T02:48:16;99240;;;9.9;100
51195;BME280;37259;49.972;19.850;2022-07-17T02:49:16;99240;;;9.9;100
51195;BME280;37259;49.972;19.850;2022-07-17T02:50:16;99250;;;9.8;100
51195;BME280;37259;49.972;19.850;2022-07-17T02:51:16;99250;;;9.8;100
51195;BME280;37259;49.972;19.850;2022-07-17T02:52:16;99250;;;9.8;100
51195;BME280;37259;49.972;19.850;2022-07-17T02:53:16;99250;;;9.8;100
51195;BME280;37259;49.972;19.850;2022-07-17T02:54:16;99250;;;9.9;100
51195;BME280;37259;49.972;19.850;2022-07-17T02:55:16;99260;;;9.9;100
51195;BME280;37259;49.972;19.850;2022-07-17T02:56:16;99260;;;9.9;100
51195;BME280;37259;49.972;19.850;2022-07-17T02:57:16;99250;;;9.9;100
51195;BME280;37259;49.972;19.850;2022-07-17T02:58:16;99250;;;9.9;100
51195;BME280;37259;49.972;19.850;2022-07-17T02:59:16;99250;;;9.9;100
51195;BME280;37259;49.972;19.850;2022-07-17T03:00:16;99250;;;9.9;100
51195;BME280;37259;49.972;19.850;2022-07-17T03:01:16;99250;;;9.9;100
51195;BME280;37259;49.972;19.850;2022-07-17T03:02:16;99250;;;9.9;100
51195;BME280;37259;49.972;19.850;2022-07-17T03:03:16;99260;;;9.9;100
51195;BME280;37259;49.972;19.850;2022-07-17T03:04:16;99260;;;9.9;100
51195;BME280;37259;49.972;19.850;2022-07-17T03:05:16;99260;;;9.9;100
51195;BME280;37259;49.972;19.850;2022-07-17T03:06:16;99260;;;9.9;100
51195;BME280;37259;49.972;19.850;2022-07-17T03:07:16;99260;;;9.9;100
51195;BME280;37259;49.972;19.850;2022-07-17T03:08:16;99260;;;10;100
51195;BME280;37259;49.972;19.850;2022-07-17T03:09:16;99260;;;10;100
51195;BME280;37259;49.972;19.850;2022-07-17T03:10:16;99260;;;10;100
51195;BME280;37259;49.972;19.850;2022-07-17T03:11:16;99260;;;10;100
51195;BME280;37259;49.972;19.850;2022-07-17T03:12:16;99260;;;10;100
51195;BME280;37259;49.972;19.850;2022-07-17T03:13:16;99260;;;10;100
51195;BME280;37259;49.972;19.850;2022-07-17T03:14:16;99260;;;10;100
51195;BME280;37259;49.972;19.850;2022-07-17T03:15:17;99260;;;10;100
51195;BME280;37259;49.972;19.850;2022-07-17T03:16:16;99260;;;10;100
51195;BME280;37259;49.972;19.850;2022-07-17T03:17:16;99270;;;10;100
51195;BME280;37259;49.972;19.850;2022-07-17T03:18:16;99270;;;10;100
51195;BME280;37259;49.972;19.850;2022-07-17T03:19:16;99270;;;10;100
51195;BME280;37259;49.972;19.850;2022-07-17T03:20:16;99270;;;10.1;100
51195;BME280;37259;49.972;19.850;2022-07-17T03:21:16;99270;;;10.1;100
51195;BME280;37259;49.972;19.850;2022-07-17T03:22:16;99270;;;10.1;100
51195;BME280;37259;49.972;19.850;2022-07-17T03:23:16;99270;;;10.1;100
51195;BME280;37259;49.972;19.850;2022-07-17T03:24:16;99270;;;10.1;100
51195;BME280;37259;49.972;19.850;2022-07-17T03:25:16;99270;;;10.1;100
51195;BME280;37259;49.972;19.850;2022-07-17T03:26:16;99270;;;10.1;100
51195;BME280;37259;49.972;19.850;2022-07-17T03:27:16;99270;;;10.1;100
51195;BME280;37259;49.972;19.850;2022-07-17T03:28:16;99270;;;10.1;100
51195;BME280;37259;49.972;19.850;2022-07-17T03:29:17;99270;;;10.1;100
51195;BME280;37259;49.972;19.850;2022-07-17T03:30:16;99280;;;10.2;100
51195;BME280;37259;49.972;19.850;2022-07-17T03:31:16;99280;;;10.2;100
51195;BME280;37259;49.972;19.850;2022-07-17T03:32:16;99280;;;10.2;100
51195;BME280;37259;49.972;19.850;2022-07-17T03:33:16;99280;;;10.2;100
51195;BME280;37259;49.972;19.850;2022-07-17T03:34:16;99280;;;10.2;100
51195;BME280;37259;49.972;19.850;2022-07-17T03:35:16;99280;;;10.3;100
51195;BME280;37259;49.972;19.850;2022-07-17T03:36:16;99290;;;10.3;100
51195;BME280;37259;49.972;19.850;2022-07-17T03:37:16;99290;;;10.3;100
51195;BME280;37259;49.972;19.850;2022-07-17T03:38:16;99290;;;10.3;100
51195;BME280;37259;49.972;19.850;2022-07-17T03:39:16;99290;;;10.3;100
51195;BME280;37259;49.972;19.850;2022-07-17T03:40:16;99290;;;10.3;100
51195;BME280;37259;49.972;19.850;2022-07-17T03:41:16;99290;;;10.4;100
51195;BME280;37259;49.972;19.850;2022-07-17T03:42:16;99290;;;10.4;100
51195;BME280;37259;49.972;19.850;2022-07-17T03:43:16;99290;;;10.4;100
51195;BME280;37259;49.972;19.850;2022-07-17T03:44:16;99290;;;10.4;100
51195;BME280;37259;49.972;19.850;2022-07-17T03:45:16;99290;;;10.4;100
51195;BME280;37259;49.972;19.850;2022-07-17T03:46:16;99280;;;10.4;100
51195;BME280;37259;49.972;19.850;2022-07-17T03:47:16;99280;;;10.4;100
51195;BME280;37259;49.972;19.850;2022-07-17T03:48:16;99290;;;10.5;100
51195;BME280;37259;49.972;19.850;2022-07-17T03:49:16;99290;;;10.5;100
51195;BME280;37259;49.972;19.850;2022-07-17T03:50:16;99300;;;10.5;100
51195;BME280;37259;49.972;19.850;2022-07-17T03:51:16;99300;;;10.5;100
51195;BME280;37259;49.972;19.850;2022-07-17T03:52:16;99300;;;10.6;100
51195;BME280;37259;49.972;19.850;2022-07-17T03:53:16;99300;;;10.6;100
51195;BME280;37259;49.972;19.850;2022-07-17T03:54:16;99300;;;10.6;100
51195;BME280;37259;49.972;19.850;2022-07-17T03:55:16;99300;;;10.6;100
51195;BME280;37259;49.972;19.850;2022-07-17T03:56:16;99300;;;10.6;100
51195;BME280;37259;49.972;19.850;2022-07-17T03:57:16;99300;;;10.6;100
51195;BME280;37259;49.972;19.850;2022-07-17T03:58:16;99300;;;10.7;100
51195;BME280;37259;49.972;19.850;2022-07-17T03:59:16;99300;;;10.7;100
51195;BME280;37259;49.972;19.850;2022-07-17T04:00:16;99300;;;10.7;100
51195;BME280;37259;49.972;19.850;2022-07-17T04:01:16;99300;;;10.7;100
51195;BME280;37259;49.972;19.850;2022-07-17T04:02:16;99300;;;10.8;100
51195;BME280;37259;49.972;19.850;2022-07-17T04:03:16;99300;;;10.8;100
51195;BME280;37259;49.972;19.850;2022-07-17T04:04:16;99300;;;10.8;100
51195;BME280;37259;49.972;19.850;2022-07-17T04:06:16;99300;;;10.8;100
51195;BME280;37259;49.972;19.850;2022-07-17T04:07:16;99300;;;10.8;100
51195;BME280;37259;49.972;19.850;2022-07-17T04:08:16;99300;;;10.9;100
51195;BME280;37259;49.972;19.850;2022-07-17T04:09:16;99300;;;10.9;100
51195;BME280;37259;49.972;19.850;2022-07-17T04:10:16;99300;;;10.9;100
51195;BME280;37259;49.972;19.850;2022-07-17T04:11:16;99310;;;10.9;100
51195;BME280;37259;49.972;19.850;2022-07-17T04:12:16;99310;;;10.9;100
51195;BME280;37259;49.972;19.850;2022-07-17T04:13:16;99310;;;11;100
51195;BME280;37259;49.972;19.850;2022-07-17T04:14:16;99310;;;11;100
51195;BME280;37259;49.972;19.850;2022-07-17T04:15:16;99310;;;11;100
51195;BME280;37259;49.972;19.850;2022-07-17T04:16:16;99310;;;11.1;100
51195;BME280;37259;49.972;19.850;2022-07-17T04:17:17;99310;;;11.1;100
51195;BME280;37259;49.972;19.850;2022-07-17T04:18:16;99310;;;11.1;100
51195;BME280;37259;49.972;19.850;2022-07-17T04:19:16;99310;;;11.1;100
51195;BME280;37259;49.972;19.850;2022-07-17T04:20:16;99310;;;11.1;100
51195;BME280;37259;49.972;19.850;2022-07-17T04:21:16;99310;;;11.2;100
51195;BME280;37259;49.972;19.850;2022-07-17T04:22:16;99320;;;11.2;100
51195;BME280;37259;49.972;19.850;2022-07-17T04:23:16;99320;;;11.2;100
51195;BME280;37259;49.972;19.850;2022-07-17T04:24:16;99310;;;11.2;100
51195;BME280;37259;49.972;19.850;2022-07-17T04:25:16;99310;;;11.2;100
51195;BME280;37259;49.972;19.850;2022-07-17T04:26:16;99320;;;11.2;100
51195;BME280;37259;49.972;19.850;2022-07-17T04:27:16;99320;;;11.2;100
51195;BME280;37259;49.972;19.850;2022-07-17T04:28:16;99320;;;11.2;100
51195;BME280;37259;49.972;19.850;2022-07-17T04:29:16;99320;;;11.2;100
51195;BME280;37259;49.972;19.850;2022-07-17T04:30:16;99320;;;11.2;100
51195;BME280;37259;49.972;19.850;2022-07-17T04:31:16;99320;;;11.3;100
51195;BME280;37259;49.972;19.850;2022-07-17T04:32:16;99320;;;11.3;100
51195;BME280;37259;49.972;19.850;2022-07-17T04:33:16;99330;;;11.3;100
51195;BME280;37259;49.972;19.850;2022-07-17T04:34:16;99330;;;11.3;100
51195;BME280;37259;49.972;19.850;2022-07-17T04:35:16;99330;;;11.4;100
51195;BME280;37259;49.972;19.850;2022-07-17T04:36:16;99330;;;11.5;100
51195;BME280;37259;49.972;19.850;2022-07-17T04:37:16;99330;;;11.5;100
51195;BME280;37259;49.972;19.850;2022-07-17T04:38:16;99330;;;11.5;100
51195;BME280;37259;49.972;19.850;2022-07-17T04:39:16;99330;;;11.5;100
51195;BME280;37259;49.972;19.850;2022-07-17T04:40:16;99330;;;11.6;100
51195;BME280;37259;49.972;19.850;2022-07-17T04:41:16;99330;;;11.6;100
51195;BME280;37259;49.972;19.850;2022-07-17T04:42:16;99330;;;11.6;100
51195;BME280;37259;49.972;19.850;2022-07-17T04:43:16;99330;;;11.6;100
51195;BME280;37259;49.972;19.850;2022-07-17T04:44:16;99330;;;11.6;100
51195;BME280;37259;49.972;19.850;2022-07-17T04:45:16;99340;;;11.8;100
51195;BME280;37259;49.972;19.850;2022-07-17T04:46:16;99340;;;11.8;100
51195;BME280;37259;49.972;19.850;2022-07-17T04:47:16;99330;;;11.8;100
51195;BME280;37259;49.972;19.850;2022-07-17T04:48:16;99340;;;11.9;100
51195;BME280;37259;49.972;19.850;2022-07-17T04:49:16;99340;;;11.9;100
51195;BME280;37259;49.972;19.850;2022-07-17T04:50:16;99340;;;12;100
51195;BME280;37259;49.972;19.850;2022-07-17T04:51:16;99340;;;12;100
51195;BME280;37259;49.972;19.850;2022-07-17T04:52:16;99340;;;12;100
51195;BME280;37259;49.972;19.850;2022-07-17T04:53:16;99340;;;12;100
51195;BME280;37259;49.972;19.850;2022-07-17T04:54:16;99350;;;12.1;100
51195;BME280;37259;49.972;19.850;2022-07-17T04:55:16;99350;;;12.1;100
51195;BME280;37259;49.972;19.850;2022-07-17T04:56:16;99350;;;12.1;100
51195;BME280;37259;49.972;19.850;2022-07-17T04:57:16;99350;;;12.1;100
51195;BME280;37259;49.972;19.850;2022-07-17T04:58:16;99350;;;12.2;100
51195;BME280;37259;49.972;19.850;2022-07-17T04:59:16;99350;;;12.2;100
51195;BME280;37259;49.972;19.850;2022-07-17T05:00:16;99350;;;12.3;100
51195;BME280;37259;49.972;19.850;2022-07-17T05:01:16;99350;;;12.3;100
51195;BME280;37259;49.972;19.850;2022-07-17T05:02:16;99350;;;12.4;100
51195;BME280;37259;49.972;19.850;2022-07-17T05:03:16;99350;;;12.4;100
51195;BME280;37259;49.972;19.850;2022-07-17T05:04:16;99350;;;12.4;100
51195;BME280;37259;49.972;19.850;2022-07-17T05:05:16;99350;;;12.4;100
51195;BME280;37259;49.972;19.850;2022-07-17T05:06:16;99350;;;12.4;100
51195;BME280;37259;49.972;19.850;2022-07-17T05:07:16;99350;;;12.5;100
51195;BME280;37259;49.972;19.850;2022-07-17T05:08:16;99350;;;12.5;100
51195;BME280;37259;49.972;19.850;2022-07-17T05:09:16;99350;;;12.5;100
51195;BME280;37259;49.972;19.850;2022-07-17T05:10:16;99350;;;12.6;100
51195;BME280;37259;49.972;19.850;2022-07-17T05:11:16;99350;;;12.6;100
51195;BME280;37259;49.972;19.850;2022-07-17T05:12:16;99350;;;12.6;100
51195;BME280;37259;49.972;19.850;2022-07-17T05:13:16;99350;;;12.6;100
51195;BME280;37259;49.972;19.850;2022-07-17T05:14:16;99360;;;12.6;100
51195;BME280;37259;49.972;19.850;2022-07-17T05:15:16;99360;;;12.6;100
51195;BME280;37259;49.972;19.850;2022-07-17T05:16:16;99360;;;12.7;100
51195;BME280;37259;49.972;19.850;2022-07-17T05:17:16;99360;;;12.7;100
51195;BME280;37259;49.972;19.850;2022-07-17T05:18:16;99360;;;12.7;100
51195;BME280;37259;49.972;19.850;2022-07-17T05:19:16;99360;;;12.7;100
51195;BME280;37259;49.972;19.850;2022-07-17T05:20:16;99360;;;12.8;100
51195;BME280;37259;49.972;19.850;2022-07-17T05:21:16;99360;;;12.9;100
51195;BME280;37259;49.972;19.850;2022-07-17T05:22:16;99360;;;12.8;100
51195;BME280;37259;49.972;19.850;2022-07-17T05:23:16;99360;;;12.8;100
51195;BME280;37259;49.972;19.850;2022-07-17T05:24:16;99360;;;12.9;100
51195;BME280;37259;49.972;19.850;2022-07-17T05:25:16;99360;;;12.9;100
51195;BME280;37259;49.972;19.850;2022-07-17T05:26:16;99370;;;12.9;100
51195;BME280;37259;49.972;19.850;2022-07-17T05:27:16;99370;;;12.9;100
51195;BME280;37259;49.972;19.850;2022-07-17T05:28:16;99360;;;13.1;100
51195;BME280;37259;49.972;19.850;2022-07-17T05:29:16;99360;;;13.1;100
51195;BME280;37259;49.972;19.850;2022-07-17T05:30:16;99360;;;13.1;100
51195;BME280;37259;49.972;19.850;2022-07-17T05:31:16;99360;;;13.1;100
51195;BME280;37259;49.972;19.850;2022-07-17T05:32:16;99360;;;13.1;100
51195;BME280;37259;49.972;19.850;2022-07-17T05:33:16;99370;;;13.3;100
51195;BME280;37259;49.972;19.850;2022-07-17T05:34:16;99370;;;13.3;100
51195;BME280;37259;49.972;19.850;2022-07-17T05:35:16;99370;;;13.3;100
51195;BME280;37259;49.972;19.850;2022-07-17T05:36:16;99370;;;13.3;100
51195;BME280;37259;49.972;19.850;2022-07-17T05:37:16;99370;;;13.3;100
51195;BME280;37259;49.972;19.850;2022-07-17T05:38:16;99370;;;13.4;100
51195;BME280;37259;49.972;19.850;2022-07-17T05:39:16;99370;;;13.4;100
51195;BME280;37259;49.972;19.850;2022-07-17T05:40:16;99370;;;13.4;100
51195;BME280;37259;49.972;19.850;2022-07-17T05:41:16;99370;;;13.5;100
51195;BME280;37259;49.972;19.850;2022-07-17T05:42:16;99370;;;13.5;100
51195;BME280;37259;49.972;19.850;2022-07-17T05:43:16;99370;;;13.6;100